Pagrindinis puslapis
METAR-TAF:

METAR-TAF

Oro uostai :

Siemreabas, Kambodža

platuma: 13-22N, ilguma: 103-51E, Aukštis: 15 m

Dabartinis oras

Ataskaita buvo paskelbta 26 minutes, ne 20:00 UTC
Vėjas 1 kt iš Vakarų/Pietvakarių
Temperatūra 26°C
Drėgmė 94%
Slėgis 1007 hPa
Matomumas: 8000 m
Išsisklaidę debesys ne aukštis 1500 ft
Išsisklaidę debesys ne aukštis 4000 ft

METAR: VDSR 202000Z 24001KT 8000 SCT015 SCT040 26/25 Q1007

Laikas: 03:26 (20:26 UTC)

Prognozė

Ataskaita buvo paskelbta 3 valandos ir 26 minutes, ne 17:00 UTC
Prognozė galioja nuo 20 metu 18 UTC su 21 metu 12 UTC
Vėjas 5 kt iš Pietvakarių
Matomumas 10 km arba daugiau
Išsisklaidę debesys ne aukštis 1700 ft
Išsisklaidę debesys ne aukštis 4000 ft
Laikinai
nuo 21 metu 07 UTC su 21 metu 11 UTC
Matomumas: 5000 m
Išsisklaidę debesys ne aukštis 1500 ft
Mažai debesys ne aukštis 1700 ft, Liūtiniai kamuoliniai debesys.
Išsisklaidę debesys ne aukštis 4000 ft
perkūnija, lietus

TAF: VDSR 201700Z 2018/2112 22005KT 9999 SCT017 SCT040 TEMPO 2107/2111 5000 TSRA SCT015 FEW017CB SCT040

Orai ataskaitas ir orų prognozės (METAR, TAF).

turimą stotys yra geltonos ir raudonos taškus žemėlapyje.

Perkelti pele per norėdami pamatyti stoties vardą.

Tada spustelėkite, norėdami matyti oro stebėjimo ir prognozės.

Norėdami pakeisti žemėlapį: spustelėkite ant žalios mygtukų su juodo kryžiaus žemyn,; žalią mygtuką su brūkšneliu, jei norite nutolinti; arba žalių rodyklių gretimoms žemėlapius.


METAR-TAF: